createdAt,value
2022-08-28T00:00:47.716Z,26.15
2022-08-28T00:02:50.113Z,26.13
2022-08-28T00:04:52.950Z,26.13
2022-08-28T00:06:55.375Z,26.08
2022-08-28T00:08:57.577Z,26.08
2022-08-28T00:10:59.836Z,26.05
2022-08-28T00:13:02.708Z,26.00
2022-08-28T00:15:12.874Z,25.86
2022-08-28T00:17:15.046Z,25.83
2022-08-28T00:19:24.115Z,25.76
2022-08-28T00:21:26.246Z,25.74
2022-08-28T00:23:42.397Z,25.68
2022-08-28T00:25:45.147Z,25.65
2022-08-28T00:27:53.493Z,25.70
2022-08-28T00:29:57.446Z,25.69
2022-08-28T00:32:00.154Z,25.68
2022-08-28T00:34:03.274Z,25.69
2022-08-28T00:36:05.607Z,25.71
2022-08-28T00:38:09.493Z,25.61
2022-08-28T00:40:15.913Z,25.53
2022-08-28T00:42:18.481Z,25.55
2022-08-28T00:44:23.440Z,25.56
2022-08-28T00:46:28.532Z,25.56
2022-08-28T00:48:30.889Z,25.48
2022-08-28T00:51:00.300Z,25.45
2022-08-28T00:53:06.056Z,25.41
2022-08-28T00:55:13.794Z,25.40
2022-08-28T00:57:20.312Z,25.42
2022-08-28T00:59:25.426Z,25.44
2022-08-28T01:01:27.583Z,25.42
2022-08-28T01:03:29.731Z,25.41
2022-08-28T01:05:33.384Z,25.40
2022-08-28T01:07:37.398Z,25.37
2022-08-28T01:09:44.114Z,25.34
2022-08-28T01:11:48.525Z,25.36
2022-08-28T01:13:54.549Z,25.32
2022-08-28T01:15:58.444Z,25.28
2022-08-28T01:18:09.568Z,25.29
2022-08-28T01:20:22.207Z,25.26
2022-08-28T01:22:31.080Z,25.22
2022-08-28T01:24:35.837Z,25.22
2022-08-28T01:26:38.745Z,25.09
2022-08-28T01:28:41.554Z,25.05
2022-08-28T01:30:47.755Z,25.08
2022-08-28T01:32:53.905Z,25.10
2022-08-28T01:34:59.572Z,25.04
2022-08-28T01:37:02.908Z,25.02
2022-08-28T01:39:12.223Z,24.98
2022-08-28T01:41:15.064Z,25.05
2022-08-28T01:43:21.020Z,25.00
2022-08-28T01:45:24.324Z,24.98
2022-08-28T01:47:26.435Z,25.00
2022-08-28T01:49:29.624Z,25.00
2022-08-28T01:51:35.077Z,25.00
2022-08-28T01:53:41.791Z,24.98
2022-08-28T01:55:47.284Z,24.93
2022-08-28T01:57:53.391Z,24.94
2022-08-28T01:59:55.694Z,24.90
2022-08-28T02:01:57.709Z,24.90
2022-08-28T02:04:00.925Z,24.81
2022-08-28T02:06:03.362Z,24.76
2022-08-28T02:08:06.649Z,24.69
2022-08-28T02:10:10.457Z,24.69
2022-08-28T02:12:12.597Z,24.71
2022-08-28T02:14:15.198Z,24.71
2022-08-28T02:16:17.342Z,24.73
2022-08-28T02:18:19.892Z,24.74
2022-08-28T02:20:23.231Z,24.78
2022-08-28T02:22:25.248Z,24.77
2022-08-28T02:24:27.345Z,24.74
2022-08-28T02:26:30.470Z,24.76
2022-08-28T02:28:32.568Z,24.76
2022-08-28T02:30:35.514Z,24.72
2022-08-28T02:32:38.369Z,24.66
2022-08-28T02:34:42.333Z,24.72
2022-08-28T02:36:47.336Z,24.69
2022-08-28T02:38:55.341Z,24.66
2022-08-28T02:40:59.675Z,24.64
2022-08-28T02:43:06.344Z,24.64
2022-08-28T02:45:10.944Z,24.62
2022-08-28T02:47:18.776Z,24.59
2022-08-28T02:49:21.016Z,24.57
2022-08-28T02:51:23.050Z,24.57
2022-08-28T02:53:25.509Z,24.54
2022-08-28T02:55:31.306Z,24.50
2022-08-28T02:57:39.228Z,24.52
2022-08-28T02:59:41.626Z,24.46
2022-08-28T03:01:44.599Z,24.32
2022-08-28T03:03:46.882Z,24.32
2022-08-28T03:05:49.783Z,24.30
2022-08-28T03:07:53.739Z,24.26
2022-08-28T03:09:56.328Z,24.10
2022-08-28T03:11:58.463Z,24.07
2022-08-28T03:14:03.374Z,24.07
2022-08-28T03:16:05.868Z,24.01
2022-08-28T03:18:11.084Z,24.06
2022-08-28T03:20:15.211Z,23.99
2022-08-28T03:22:18.523Z,24.02
2022-08-28T03:24:23.813Z,24.04
2022-08-28T03:26:26.064Z,24.07
2022-08-28T03:28:31.578Z,24.09
2022-08-28T03:30:33.746Z,24.06
2022-08-28T03:32:35.956Z,24.07
2022-08-28T03:34:38.175Z,24.11
2022-08-28T03:36:40.348Z,24.12
2022-08-28T03:38:42.613Z,24.07
2022-08-28T03:40:46.724Z,24.08
2022-08-28T03:42:53.028Z,24.08
2022-08-28T03:44:56.025Z,24.07
2022-08-28T03:46:58.059Z,24.01
2022-08-28T03:49:02.820Z,24.04
2022-08-28T03:51:09.999Z,24.01
2022-08-28T03:53:12.794Z,24.04
2022-08-28T03:55:15.497Z,24.05
2022-08-28T03:57:21.825Z,23.90
2022-08-28T03:59:26.678Z,23.80
2022-08-28T04:01:34.604Z,23.80
2022-08-28T04:03:37.037Z,23.75
2022-08-28T04:05:40.637Z,23.72
2022-08-28T04:07:42.811Z,23.66
2022-08-28T04:09:45.865Z,23.67
2022-08-28T04:11:48.024Z,23.69
2022-08-28T04:13:58.975Z,23.63
2022-08-28T04:16:06.517Z,23.59
2022-08-28T04:18:11.222Z,23.57
2022-08-28T04:20:13.742Z,23.60
2022-08-28T04:22:17.136Z,23.61
2022-08-28T04:24:20.583Z,23.60
2022-08-28T04:26:25.244Z,23.61
2022-08-28T04:28:27.963Z,23.56
2022-08-28T04:30:30.532Z,23.64
2022-08-28T04:32:35.659Z,23.64
2022-08-28T04:34:38.775Z,23.67
2022-08-28T04:36:44.060Z,23.64
2022-08-28T04:38:49.376Z,23.66
2022-08-28T04:40:51.642Z,23.62
2022-08-28T04:42:54.093Z,23.65
2022-08-28T04:44:59.770Z,23.69
2022-08-28T04:47:02.356Z,23.73
2022-08-28T04:49:06.188Z,23.80
2022-08-28T04:51:11.539Z,23.86
2022-08-28T04:53:15.305Z,23.92
2022-08-28T04:55:18.248Z,24.04
2022-08-28T04:57:39.810Z,24.11
2022-08-28T04:59:45.307Z,24.19
2022-08-28T05:01:47.878Z,24.30
2022-08-28T05:03:57.868Z,24.31
2022-08-28T05:06:00.108Z,24.45
2022-08-28T05:08:02.713Z,24.51
2022-08-28T05:10:06.094Z,24.58
2022-08-28T05:12:08.833Z,24.66
2022-08-28T05:14:15.868Z,24.71
2022-08-28T05:16:20.132Z,24.76
2022-08-28T05:18:24.331Z,24.75
2022-08-28T05:20:26.810Z,24.73
2022-08-28T05:22:31.772Z,24.70
2022-08-28T05:24:35.426Z,24.87
2022-08-28T05:26:40.316Z,25.00
2022-08-28T05:28:42.859Z,25.11
2022-08-28T05:30:46.333Z,25.08
2022-08-28T05:32:48.506Z,25.12
2022-08-28T05:34:50.637Z,25.24
2022-08-28T05:36:52.927Z,25.32
2022-08-28T05:38:58.156Z,25.40
2022-08-28T05:41:01.272Z,25.42
2022-08-28T05:43:03.670Z,25.46
2022-08-28T05:45:07.232Z,25.55
2022-08-28T05:47:09.756Z,25.66
2022-08-28T05:49:13.689Z,25.80
2022-08-28T05:51:23.944Z,25.81
2022-08-28T05:53:27.003Z,25.91
2022-08-28T05:55:29.114Z,25.85
2022-08-28T05:57:31.646Z,26.01
2022-08-28T05:59:34.169Z,26.14
2022-08-28T06:01:40.660Z,26.22
2022-08-28T06:03:45.508Z,26.31
2022-08-28T06:05:57.815Z,26.39
2022-08-28T06:08:00.323Z,26.38
2022-08-28T06:10:02.747Z,26.42
2022-08-28T06:12:05.864Z,26.56
2022-08-28T06:14:11.010Z,26.39
2022-08-28T06:16:14.101Z,26.45
2022-08-28T06:18:17.875Z,26.47
2022-08-28T06:20:21.089Z,26.66
2022-08-28T06:22:23.575Z,26.74
2022-08-28T06:24:30.498Z,26.67
2022-08-28T06:26:32.663Z,26.85
2022-08-28T06:28:34.927Z,26.96
2022-08-28T06:30:52.847Z,26.98
2022-08-28T06:33:06.751Z,27.07
2022-08-28T06:35:09.046Z,27.25
2022-08-28T06:37:12.651Z,27.44
2022-08-28T06:39:15.561Z,27.51
2022-08-28T06:41:20.682Z,27.64
2022-08-28T06:43:26.346Z,27.65
2022-08-28T06:45:28.630Z,27.93
2022-08-28T06:47:30.780Z,28.00
2022-08-28T06:49:33.576Z,28.15
2022-08-28T06:51:36.710Z,28.14
2022-08-28T06:53:41.465Z,28.19
2022-08-28T06:55:43.864Z,28.23
2022-08-28T06:57:46.575Z,28.39
2022-08-28T06:59:49.391Z,28.45
2022-08-28T07:01:54.924Z,28.54
2022-08-28T07:04:02.602Z,28.50
2022-08-28T07:06:06.639Z,28.64
2022-08-28T07:08:11.913Z,28.73
2022-08-28T07:10:14.262Z,28.84
2022-08-28T07:12:18.048Z,28.82
2022-08-28T07:14:20.148Z,28.91
2022-08-28T07:16:31.829Z,28.99
2022-08-28T07:18:33.983Z,29.18
2022-08-28T07:20:36.494Z,29.32
2022-08-28T07:22:41.048Z,29.38
2022-08-28T07:24:43.336Z,29.41
2022-08-28T07:26:47.397Z,29.35
2022-08-28T07:28:51.990Z,29.40
2022-08-28T07:30:59.660Z,29.44
2022-08-28T07:33:02.558Z,29.47
2022-08-28T07:35:05.129Z,29.55
2022-08-28T07:37:12.150Z,29.46
2022-08-28T07:39:17.169Z,29.47
2022-08-28T07:41:22.453Z,29.56
2022-08-28T07:43:42.937Z,29.76
2022-08-28T07:45:45.406Z,29.92
2022-08-28T07:47:47.695Z,30.05
2022-08-28T07:49:50.248Z,30.13
2022-08-28T07:51:54.387Z,30.24
2022-08-28T07:54:00.396Z,30.39
2022-08-28T07:56:03.097Z,30.49
2022-08-28T07:58:06.214Z,30.57
2022-08-28T08:00:09.018Z,30.63
2022-08-28T08:02:16.706Z,30.76
2022-08-28T08:04:21.249Z,30.86
2022-08-28T08:06:28.913Z,30.93
2022-08-28T08:08:36.806Z,31.07
2022-08-28T08:10:38.898Z,31.21
2022-08-28T08:12:42.990Z,31.35
2022-08-28T08:14:45.969Z,31.47
2022-08-28T08:16:48.903Z,31.63
2022-08-28T08:18:52.244Z,31.75
2022-08-28T08:20:54.473Z,31.80
2022-08-28T08:22:56.997Z,31.84
2022-08-28T08:24:59.221Z,31.89
2022-08-28T08:27:02.780Z,32.01
2022-08-28T08:29:05.134Z,32.09
2022-08-28T08:31:11.696Z,32.19
2022-08-28T08:33:13.974Z,32.32
2022-08-28T08:35:17.544Z,32.41
2022-08-28T08:37:19.847Z,32.55
2022-08-28T08:39:22.196Z,32.67
2022-08-28T08:41:55.810Z,32.74
2022-08-28T08:44:07.960Z,32.88
2022-08-28T08:46:10.934Z,33.02
2022-08-28T08:48:32.799Z,33.11
2022-08-28T08:50:36.146Z,33.22
2022-08-28T08:52:44.310Z,33.31
2022-08-28T08:55:04.977Z,33.35
2022-08-28T08:57:12.360Z,33.46
2022-08-28T08:59:18.880Z,33.51
2022-08-28T09:01:30.021Z,33.63
2022-08-28T09:03:38.925Z,33.74
2022-08-28T09:05:52.604Z,33.83
2022-08-28T09:07:59.479Z,33.97
2022-08-28T09:10:02.358Z,34.03
2022-08-28T09:12:07.400Z,34.11
2022-08-28T09:14:17.157Z,34.17
2022-08-28T09:16:32.564Z,34.26
2022-08-28T09:18:35.939Z,34.33
2022-08-28T09:20:42.976Z,34.41
2022-08-28T09:22:50.694Z,34.47
2022-08-28T09:24:53.369Z,34.55
2022-08-28T09:27:12.316Z,34.59
2022-08-28T09:29:23.719Z,34.68
2022-08-28T09:31:36.711Z,34.62
2022-08-28T09:33:51.475Z,34.67
2022-08-28T09:35:53.890Z,34.59
2022-08-28T09:38:15.718Z,34.55
2022-08-28T09:40:52.233Z,34.69
2022-08-28T09:43:20.267Z,34.81
2022-08-28T09:45:27.532Z,34.95
2022-08-28T09:47:57.574Z,35.02
2022-08-28T09:50:30.011Z,35.14
2022-08-28T09:52:32.355Z,35.21
2022-08-28T09:54:44.862Z,35.21
2022-08-28T09:56:47.755Z,35.29
2022-08-28T09:58:54.726Z,35.36
2022-08-28T10:01:04.463Z,35.43
2022-08-28T10:03:26.920Z,35.47
2022-08-28T10:05:39.198Z,35.57
2022-08-28T10:08:26.649Z,35.63
2022-08-28T10:10:44.650Z,35.70
2022-08-28T10:12:52.650Z,35.75
2022-08-28T10:15:27.605Z,35.81
2022-08-28T10:17:49.003Z,35.91
2022-08-28T10:20:13.831Z,35.93
2022-08-28T10:27:02.137Z,35.78
2022-08-28T10:29:24.136Z,35.88
2022-08-28T10:31:46.481Z,35.91
2022-08-28T10:34:20.924Z,35.95
2022-08-28T10:36:34.502Z,36.04
2022-08-28T10:38:49.566Z,36.09
2022-08-28T10:41:05.217Z,36.18
2022-08-28T10:43:14.087Z,36.28
2022-08-28T10:45:21.093Z,36.28
2022-08-28T10:47:26.470Z,36.29
2022-08-28T10:49:42.201Z,36.28
2022-08-28T10:51:51.293Z,36.41
2022-08-28T10:53:58.805Z,36.48
2022-08-28T10:56:19.799Z,36.54
2022-08-28T10:58:26.441Z,36.61
2022-08-28T11:00:29.949Z,36.65
2022-08-28T11:02:33.103Z,36.62
2022-08-28T11:04:35.901Z,36.69
2022-08-28T11:06:46.654Z,36.72
2022-08-28T11:08:56.129Z,36.73
2022-08-28T11:11:04.165Z,36.75
2022-08-28T11:13:09.995Z,36.70
2022-08-28T11:15:34.226Z,36.57
2022-08-28T11:17:42.245Z,36.50
2022-08-28T11:19:59.521Z,36.51
2022-08-28T11:22:15.321Z,36.56
2022-08-28T11:24:23.758Z,36.65
2022-08-28T11:26:39.206Z,36.75
2022-08-28T11:28:46.899Z,36.79
2022-08-28T11:31:19.235Z,36.85
2022-08-28T11:33:37.429Z,36.91
2022-08-28T11:35:48.610Z,36.86
2022-08-28T11:37:54.977Z,36.92
2022-08-28T11:40:17.568Z,36.97
2022-08-28T11:42:35.292Z,37.02
2022-08-28T11:44:45.279Z,37.10
2022-08-28T11:46:52.311Z,37.18
2022-08-28T11:48:57.317Z,37.15
2022-08-28T11:51:09.434Z,37.14
2022-08-28T11:53:24.278Z,37.09
2022-08-28T11:56:07.080Z,37.00
2022-08-28T11:58:17.198Z,37.04
2022-08-28T12:00:53.054Z,37.05
2022-08-28T12:03:07.251Z,37.15
2022-08-28T12:05:09.488Z,37.22
2022-08-28T12:07:11.725Z,37.32
2022-08-28T12:09:26.302Z,37.33
2022-08-28T12:11:41.923Z,37.34
2022-08-28T12:13:52.133Z,37.40
2022-08-28T12:16:06.988Z,37.37
2022-08-28T12:18:14.873Z,37.42
2022-08-28T12:20:26.155Z,37.44
2022-08-28T12:22:53.389Z,37.40
2022-08-28T12:25:03.591Z,37.49
2022-08-28T12:27:08.587Z,37.59
2022-08-28T12:29:35.137Z,37.55
2022-08-28T12:32:12.630Z,37.53
2022-08-28T12:34:28.997Z,37.58
2022-08-28T12:36:31.405Z,37.64
2022-08-28T12:38:37.937Z,37.60
2022-08-28T12:40:53.609Z,37.53
2022-08-28T12:43:01.071Z,37.59
2022-08-28T12:45:10.297Z,37.57
2022-08-28T12:47:19.205Z,37.56
2022-08-28T12:49:37.845Z,37.52
2022-08-28T12:51:42.321Z,37.52
2022-08-28T12:53:47.806Z,37.45
2022-08-28T12:55:50.309Z,37.51
2022-08-28T12:57:53.712Z,37.46
2022-08-28T13:00:09.495Z,37.36
2022-08-28T13:02:23.789Z,37.35
2022-08-28T13:04:34.425Z,37.29
2022-08-28T13:06:39.562Z,37.27
2022-08-28T13:08:42.263Z,37.21
2022-08-28T13:10:52.244Z,37.19
2022-08-28T13:13:11.363Z,37.27
2022-08-28T13:15:14.377Z,37.35
2022-08-28T13:17:45.063Z,37.37
2022-08-28T13:20:03.640Z,37.42
2022-08-28T13:22:09.552Z,37.44
2022-08-28T13:24:21.299Z,37.41
2022-08-28T13:26:37.906Z,37.40
2022-08-28T13:28:43.075Z,37.45
2022-08-28T13:30:58.630Z,37.41
2022-08-28T13:33:05.139Z,37.44
2022-08-28T13:35:07.392Z,37.51
2022-08-28T13:37:30.992Z,37.48
2022-08-28T13:39:37.901Z,37.24
2022-08-28T13:41:40.938Z,37.22
2022-08-28T13:43:46.902Z,37.12
2022-08-28T13:45:50.527Z,37.16
2022-08-28T13:47:53.487Z,37.14
2022-08-28T13:49:56.375Z,37.09
2022-08-28T13:52:01.176Z,36.99
2022-08-28T13:54:04.102Z,37.01
2022-08-28T13:56:08.413Z,36.98
2022-08-28T13:58:11.813Z,36.97
2022-08-28T14:00:15.397Z,36.94
2022-08-28T14:02:42.066Z,36.92
2022-08-28T14:04:45.313Z,36.75
2022-08-28T14:06:47.880Z,36.75
2022-08-28T14:08:51.094Z,36.67
2022-08-28T14:10:53.547Z,36.61
2022-08-28T14:12:56.372Z,36.68
2022-08-28T14:14:58.558Z,36.73
2022-08-28T14:17:02.020Z,36.77
2022-08-28T14:19:06.377Z,36.71
2022-08-28T14:21:08.644Z,36.69
2022-08-28T14:23:11.366Z,36.70
2022-08-28T14:25:14.249Z,36.72
2022-08-28T14:27:19.906Z,36.76
2022-08-28T14:29:23.145Z,36.74
2022-08-28T14:31:26.830Z,36.64
2022-08-28T14:33:29.641Z,36.57
2022-08-28T14:35:41.096Z,36.51
2022-08-28T14:45:45.963Z,36.12
2022-08-28T14:47:48.162Z,36.10
2022-08-28T14:49:50.863Z,36.14
2022-08-28T14:51:57.338Z,36.09
2022-08-28T14:54:01.398Z,36.13
2022-08-28T14:56:07.883Z,36.14
2022-08-28T14:58:11.145Z,36.14
2022-08-28T15:00:16.118Z,36.18
2022-08-28T15:02:19.073Z,36.15
2022-08-28T15:04:23.881Z,36.06
2022-08-28T15:06:28.149Z,36.09
2022-08-28T15:08:33.395Z,36.07
2022-08-28T15:10:39.141Z,36.07
2022-08-28T15:12:42.503Z,36.04
2022-08-28T15:14:55.236Z,36.01
2022-08-28T15:17:00.371Z,35.88
2022-08-28T15:19:03.874Z,35.84
2022-08-28T15:21:21.969Z,35.80
2022-08-28T15:23:24.947Z,35.87
2022-08-28T15:25:27.488Z,35.87
2022-08-28T15:27:30.229Z,35.89
2022-08-28T15:29:32.693Z,35.89
2022-08-28T15:31:38.795Z,35.92
2022-08-28T15:33:45.385Z,35.89
2022-08-28T15:35:48.428Z,35.88
2022-08-28T15:37:51.885Z,35.83
2022-08-28T15:40:13.089Z,35.83
2022-08-28T15:42:16.167Z,35.79
2022-08-28T15:44:18.598Z,35.76
2022-08-28T15:46:22.283Z,35.65
2022-08-28T15:48:24.542Z,35.68
2022-08-28T15:50:26.858Z,35.67
2022-08-28T15:52:29.530Z,35.63
2022-08-28T15:54:32.357Z,35.62
2022-08-28T15:56:34.822Z,35.65
2022-08-28T15:58:37.736Z,35.66
2022-08-28T16:00:40.325Z,35.68
2022-08-28T16:02:43.150Z,35.65
2022-08-28T16:04:45.865Z,35.62
2022-08-28T16:07:50.628Z,35.54
2022-08-28T16:09:53.027Z,35.49
2022-08-28T16:11:55.572Z,35.44
2022-08-28T16:13:58.359Z,35.36
2022-08-28T16:16:00.950Z,35.31
2022-08-28T16:18:03.700Z,35.23
2022-08-28T16:20:07.053Z,35.26
2022-08-28T16:22:17.900Z,35.20
2022-08-28T16:24:20.383Z,35.15
2022-08-28T16:26:23.233Z,35.16
2022-08-28T16:28:27.109Z,35.17
2022-08-28T16:30:29.444Z,35.17
2022-08-28T16:32:32.455Z,35.13
2022-08-28T16:34:35.309Z,35.15
2022-08-28T16:36:39.220Z,35.17
2022-08-28T16:38:46.145Z,35.14
2022-08-28T16:40:48.589Z,35.11
2022-08-28T16:42:52.238Z,35.04
2022-08-28T16:44:59.856Z,34.99
2022-08-28T16:47:02.271Z,35.00
2022-08-28T16:49:04.680Z,34.99
2022-08-28T16:51:07.398Z,34.94
2022-08-28T16:53:10.391Z,34.87
2022-08-28T16:55:16.271Z,34.80
2022-08-28T16:57:20.003Z,34.74
2022-08-28T16:59:24.194Z,34.70
2022-08-28T17:01:26.885Z,34.65
2022-08-28T17:03:29.244Z,34.59
2022-08-28T17:05:32.471Z,34.55
2022-08-28T17:07:35.469Z,34.47
2022-08-28T17:09:40.764Z,34.40
2022-08-28T17:11:43.277Z,34.35
2022-08-28T17:13:49.260Z,34.31
2022-08-28T17:15:52.789Z,34.23
2022-08-28T17:17:55.896Z,34.15
2022-08-28T17:19:58.036Z,34.11
2022-08-28T17:22:18.630Z,34.04
2022-08-28T17:24:22.689Z,33.96
2022-08-28T17:26:28.152Z,33.88
2022-08-28T17:28:31.368Z,33.82
2022-08-28T17:30:34.592Z,33.72
2022-08-28T17:32:37.235Z,33.68
2022-08-28T17:34:42.708Z,33.59
2022-08-28T17:36:45.022Z,33.48
2022-08-28T17:38:50.283Z,33.43
2022-08-28T17:40:53.486Z,33.30
2022-08-28T17:42:58.095Z,33.26
2022-08-28T17:45:00.257Z,33.21
2022-08-28T17:47:02.903Z,33.15
2022-08-28T17:49:07.277Z,33.12
2022-08-28T17:51:09.480Z,33.03
2022-08-28T17:53:12.921Z,32.97
2022-08-28T17:55:15.451Z,32.93
2022-08-28T17:57:17.898Z,32.88
2022-08-28T17:59:21.593Z,32.87
2022-08-28T18:01:26.492Z,32.81
2022-08-28T18:03:28.734Z,32.77
2022-08-28T18:05:31.430Z,32.71
2022-08-28T18:07:33.722Z,32.67
2022-08-28T18:09:36.111Z,32.65
2022-08-28T18:11:38.655Z,32.58
2022-08-28T18:13:42.712Z,32.54
2022-08-28T18:15:45.492Z,32.48
2022-08-28T18:17:58.018Z,32.41
2022-08-28T18:20:01.222Z,32.39
2022-08-28T18:22:03.435Z,32.33
2022-08-28T18:24:07.765Z,32.30
2022-08-28T18:26:10.223Z,32.23
2022-08-28T18:28:19.614Z,32.10
2022-08-28T18:30:24.764Z,31.95
2022-08-28T18:32:27.136Z,31.88
2022-08-28T18:34:32.227Z,31.86
2022-08-28T18:36:34.529Z,31.86
2022-08-28T18:38:37.177Z,31.83
2022-08-28T18:40:40.149Z,31.83
2022-08-28T18:42:42.644Z,31.81
2022-08-28T18:44:45.467Z,31.80
2022-08-28T18:46:48.516Z,31.78
2022-08-28T18:48:50.869Z,31.76
2022-08-28T18:50:53.587Z,31.74
2022-08-28T18:52:57.987Z,31.72
2022-08-28T18:55:00.663Z,31.66
2022-08-28T18:57:05.675Z,31.63
2022-08-28T18:59:08.239Z,31.61
2022-08-28T19:01:10.226Z,31.59
2022-08-28T19:03:12.389Z,31.55
2022-08-28T19:05:15.767Z,31.52
2022-08-28T19:07:17.821Z,31.46
2022-08-28T19:09:20.730Z,31.44
2022-08-28T19:11:22.696Z,31.42
2022-08-28T19:13:24.515Z,31.37
2022-08-28T19:15:26.311Z,31.33
2022-08-28T19:17:28.647Z,31.30
2022-08-28T19:19:32.319Z,31.27
2022-08-28T19:21:34.162Z,31.18
2022-08-28T19:23:36.012Z,31.13
2022-08-28T19:25:37.796Z,30.96
2022-08-28T19:27:41.369Z,30.84
2022-08-28T19:29:43.275Z,30.74
2022-08-28T19:31:45.124Z,30.72
2022-08-28T19:33:47.532Z,30.63
2022-08-28T19:35:50.139Z,30.64
2022-08-28T19:37:53.776Z,30.64
2022-08-28T19:39:56.630Z,30.68
2022-08-28T19:41:58.800Z,30.67
2022-08-28T19:44:00.677Z,30.68
2022-08-28T19:46:07.934Z,30.66
2022-08-28T19:48:13.250Z,30.62
2022-08-28T19:50:15.879Z,30.63
2022-08-28T19:52:17.919Z,30.58
2022-08-28T19:54:19.835Z,30.57
2022-08-28T19:56:26.830Z,30.56
2022-08-28T19:58:28.722Z,30.52
2022-08-28T20:00:33.108Z,30.52
2022-08-28T20:02:35.180Z,30.51
2022-08-28T20:04:38.351Z,30.53
2022-08-28T20:06:40.616Z,30.43
2022-08-28T20:08:43.069Z,30.32
2022-08-28T20:10:46.174Z,30.30
2022-08-28T20:12:48.987Z,30.35
2022-08-28T20:14:51.328Z,30.37
2022-08-28T20:16:54.616Z,30.38
2022-08-28T20:19:00.366Z,30.35
2022-08-28T20:21:02.821Z,30.41
2022-08-28T20:23:05.300Z,30.40
2022-08-28T20:25:09.794Z,30.34
2022-08-28T20:27:12.128Z,30.33
2022-08-28T20:29:14.662Z,30.35
2022-08-28T20:31:17.858Z,30.28
2022-08-28T20:33:19.832Z,30.23
2022-08-28T20:35:24.627Z,30.21
2022-08-28T20:37:29.669Z,30.22
2022-08-28T20:39:37.150Z,30.19
2022-08-28T20:41:40.698Z,30.22
2022-08-28T20:43:43.916Z,30.14
2022-08-28T20:45:46.071Z,30.12
2022-08-28T20:47:48.515Z,30.07
2022-08-28T20:49:50.595Z,30.06
2022-08-28T20:51:53.130Z,29.99
2022-08-28T20:53:55.146Z,30.01
2022-08-28T20:55:59.955Z,29.97
2022-08-28T20:58:02.027Z,29.92
2022-08-28T21:00:08.440Z,30.01
2022-08-28T21:02:23.130Z,30.02
2022-08-28T21:04:25.383Z,30.06
2022-08-28T21:06:29.091Z,29.96
2022-08-28T21:08:31.249Z,29.95
2022-08-28T21:10:34.521Z,30.01
2022-08-28T21:12:39.026Z,29.96
2022-08-28T21:14:41.092Z,29.95
2022-08-28T21:16:44.089Z,29.95
2022-08-28T21:19:14.111Z,30.00
2022-08-28T21:21:10.167Z,30.02
2022-08-28T21:23:12.096Z,30.06
2022-08-28T21:25:16.039Z,30.06
2022-08-28T21:27:18.518Z,29.99
2022-08-28T21:29:22.647Z,29.98
2022-08-28T21:31:25.211Z,29.92
2022-08-28T21:33:27.788Z,29.92
2022-08-28T21:35:29.897Z,29.95
2022-08-28T21:37:32.428Z,29.96
2022-08-28T21:39:35.251Z,29.99
2022-08-28T21:41:37.446Z,30.00
2022-08-28T21:43:40.856Z,30.03
2022-08-28T21:45:43.478Z,30.01
2022-08-28T21:47:45.506Z,29.99
2022-08-28T21:49:55.113Z,29.95
2022-08-28T21:51:57.096Z,29.95
2022-08-28T21:53:59.069Z,29.92
2022-08-28T21:56:01.099Z,29.89
2022-08-28T21:58:03.579Z,29.83
2022-08-28T22:00:10.389Z,29.77
2022-08-28T22:02:12.437Z,29.73
2022-08-28T22:04:14.511Z,29.69
2022-08-28T22:06:19.549Z,29.66
2022-08-28T22:08:24.966Z,29.58
2022-08-28T22:10:29.520Z,29.55
2022-08-28T22:12:32.881Z,29.49
2022-08-28T22:14:35.837Z,29.46
2022-08-28T22:16:38.080Z,29.38
2022-08-28T22:18:40.275Z,29.32
2022-08-28T22:21:02.867Z,29.28
2022-08-28T22:23:11.133Z,29.23
2022-08-28T22:25:13.546Z,29.18
2022-08-28T22:27:15.628Z,29.10
2022-08-28T22:29:17.947Z,29.07
2022-08-28T22:31:20.791Z,29.02
2022-08-28T22:33:23.028Z,29.01
2022-08-28T22:35:25.161Z,28.96
2022-08-28T22:37:27.306Z,28.92
2022-08-28T22:39:29.527Z,28.87
2022-08-28T22:41:32.597Z,28.88
2022-08-28T22:43:35.520Z,28.75
2022-08-28T22:45:37.845Z,28.47
2022-08-28T22:47:39.998Z,28.16
2022-08-28T22:49:42.780Z,28.09
2022-08-28T22:51:44.808Z,28.04
2022-08-28T22:53:48.368Z,27.94
2022-08-28T22:55:50.372Z,27.95
2022-08-28T22:57:52.485Z,27.90
2022-08-28T22:59:54.658Z,27.83
2022-08-28T23:01:58.943Z,27.86
2022-08-28T23:04:02.896Z,27.84
2022-08-28T23:06:05.395Z,27.88
2022-08-28T23:08:07.738Z,27.94
2022-08-28T23:10:11.859Z,27.95
2022-08-28T23:12:14.251Z,27.99
2022-08-28T23:14:16.465Z,27.94
2022-08-28T23:16:24.351Z,27.94
2022-08-28T23:18:29.366Z,27.91
2022-08-28T23:20:31.609Z,27.91
2022-08-28T23:22:35.910Z,27.91
2022-08-28T23:24:38.822Z,27.88
2022-08-28T23:26:42.003Z,27.84
2022-08-28T23:28:44.483Z,27.84
2022-08-28T23:30:49.738Z,27.82
2022-08-28T23:32:52.885Z,27.78
2022-08-28T23:34:55.097Z,27.79
2022-08-28T23:36:57.164Z,27.77
2022-08-28T23:39:03.053Z,27.75
2022-08-28T23:41:05.564Z,27.68
2022-08-28T23:43:07.980Z,27.66
2022-08-28T23:45:12.084Z,27.63
2022-08-28T23:47:14.647Z,27.56
2022-08-28T23:49:18.057Z,27.56
2022-08-28T23:51:21.901Z,27.55
2022-08-28T23:53:24.400Z,27.51
2022-08-28T23:55:27.012Z,27.48
2022-08-28T23:57:33.872Z,27.45
2022-08-28T23:59:36.048Z,27.43
